UKOO/ODS METAR and TAF weather

Enter ICAO airport designator
Station Type Date Time Source
UKOO METAR 2020/04/05 18:00 UTC NOAA

UKOO 051800Z 03006MPS CAVOK 11/M10 Q1029 R34/090060 NOSIG


Station Type Date Time Source
UKOO Decoded METAR 2020/04/05 18:00 UTC NOAA

Odesa, Ukraine (UKOO) 46-26N 030-46E 42M
Apr 05, 2020 - 02:00 PM EDT / 2020.04.05 1800 UTC
Wind: from the NNE (030 degrees) at 13 MPH (12 KT):0
Visibility: greater than 7 mile(s):0
Temperature: 51 F (11 C)
Dew Point: 14 F (-10 C)
Relative Humidity: 21%
Pressure (altimeter): 30.39 in. Hg (1029 hPa)
ob: UKOO 051800Z 03006MPS CAVOK 11/M10 Q1029 R34/090060 NOSIG
cycle: 18

Station Type Date Time Source
UKOO TAF 2020/04/05 18:09 UTC NOAA

TAF UKOO 051703Z 0518/0618 04007G14MPS 6000 BKN010 TX14/0612Z TN02/0603Z PROB40
TEMPO 0521/0606 04009G16MPS
BECMG 0609/0610 09003MPS

Example: see airport list